Airfield :
LOGIN :

Register | Disclaimer

   EN    FR    IT 

 










Legend :    VFR   Marginal VFR   IFR   Intensive IFR   Very Intensive IFR
Visi :
Ceiling :
>= 8 km
>= 3000ft
5 to 8 km
1000 to 3000 ft
1500m to 5 km
500 to 1000 ft
800 to 1500m
200 to 500 ft
< 800m
< 200 ft
Symbols :   Thunderstorms  Fog  Heavy snow  Heavy precipitations  Wind > 20 kt
SIGMETs :     Misc.  Thunderstorms  Icing  Turbulence  Mountain Waves  Volcanic Ashes






- Airport Elevation : 646 ft
- IATA code : VNO


EYVI - Vilnius int.

CURRENT METAR :
  • 150820Z 11007KT 060V140 CAVOK 24/19 Q1015 NOSIG

EXPIRED METARs :
  • 150750Z 10007KT CAVOK 24/19 Q1015 NOSIG
  • 150720Z 09007KT 060V120 CAVOK 23/18 Q1015 NOSIG
  • 150650Z 10009KT CAVOK 23/18 Q1015 NOSIG
  • 150620Z 09007KT CAVOK 22/18 Q1015 NOSIG

TAF TAF EYVI
Valid from the 15 at 06:00 until the 16 at 06:00 UTC


150501Z 1506/1606 10008KT 9000 SCT045
TEMPO 1506/1510 BKN040CB
TEMPO 1510/1518 12018KT BKN035CB



MET'MAP, your aeronautical weather chart ! - Copyright ORBIFLY December 2007 - Disclaimer

ORBIFLY MET'MAP TEAM :

Programming & Development : Alexandra Zaïnal
Original concept : Baudouin d'Aumeries
Technical & hardware support : Manuel Goepfert
Assistance : Marc-Olivier Méhu




SOURCES & CREDITS :

   NOAA